Weather at Balclutha Aerodrome

Public forecast

Using degrees Celsius for public forecast. Weather courtesy of forecast.io.

Closest aviation weather report (METAR) to Balclutha Aerodrome

Closest report is Christchurch International Airport, 203.3 nm (376.6 km) NE. Retrieved 2021/06/23 11:00 UTC (26 minutes ago):

NZCH 231100Z AUTO 06005KT 020V080 9999 BKN019/// 07/05 Q1022 NOSIG

Closest aviation forecast (TAF) to Balclutha Aerodrome

Forecast is more than 12 hours old.

Closest forecast is Queenstown International Airport, 84.8 nm (157.0 km) NNW. Retrieved 2021/06/22 18:18 UTC (17 hours ago):

TAF NZQN 221718Z 2218/2312 05005KT 9999 FEW014 BKN050 TEMPO 2219/2300 BKN015 BECMG 2300/2302 25010KT BECMG 2305/2307 VRB02KT